sensor_id;sensor_type;location;lat;lon;timestamp;pressure;altitude;pressure_sealevel;temperature;humidity
9139;BME280;4604;48.616;9.548;2023-07-13T00:00:44;96875.50;;;21.46;57.95
9139;BME280;4604;48.616;9.548;2023-07-13T00:03:10;96866.19;;;21.42;56.19
9139;BME280;4604;48.616;9.548;2023-07-13T00:05:38;96866.19;;;21.29;56.07
9139;BME280;4604;48.616;9.548;2023-07-13T00:08:06;96861.22;;;21.26;56.06
9139;BME280;4604;48.616;9.548;2023-07-13T00:10:33;96870.50;;;21.23;55.96
9139;BME280;4604;48.616;9.548;2023-07-13T00:13:00;96872.56;;;21.21;56.23
9139;BME280;4604;48.616;9.548;2023-07-13T00:15:27;96867.84;;;21.10;56.53
9139;BME280;4604;48.616;9.548;2023-07-13T00:17:55;96860.81;;;21.09;56.54
9139;BME280;4604;48.616;9.548;2023-07-13T00:20:23;96869.69;;;20.96;56.79
9139;BME280;4604;48.616;9.548;2023-07-13T00:22:50;96877.75;;;20.96;57.03
9139;BME280;4604;48.616;9.548;2023-07-13T00:25:20;96869.06;;;20.94;57.27
9139;BME280;4604;48.616;9.548;2023-07-13T00:27:47;96866.41;;;20.94;57.60
9139;BME280;4604;48.616;9.548;2023-07-13T00:30:17;96865.56;;;20.87;58.01
9139;BME280;4604;48.616;9.548;2023-07-13T00:32:44;96871.53;;;20.82;58.62
9139;BME280;4604;48.616;9.548;2023-07-13T00:35:13;96873.38;;;20.75;59.15
9139;BME280;4604;48.616;9.548;2023-07-13T00:37:40;96870.72;;;20.75;58.84
9139;BME280;4604;48.616;9.548;2023-07-13T00:40:07;96888.69;;;20.81;59.04
9139;BME280;4604;48.616;9.548;2023-07-13T00:42:37;96882.47;;;20.74;59.60
9139;BME280;4604;48.616;9.548;2023-07-13T00:45:07;96881.84;;;20.65;60.22
9139;BME280;4604;48.616;9.548;2023-07-13T00:47:34;96890.09;;;20.57;60.45
9139;BME280;4604;48.616;9.548;2023-07-13T00:50:02;96880.19;;;20.64;59.93
9139;BME280;4604;48.616;9.548;2023-07-13T00:52:29;96886.81;;;20.68;59.81
9139;BME280;4604;48.616;9.548;2023-07-13T00:54:56;96887.78;;;20.54;60.74
9139;BME280;4604;48.616;9.548;2023-07-13T00:57:24;96894.66;;;20.63;60.10
9139;BME280;4604;48.616;9.548;2023-07-13T00:59:57;96892.34;;;20.53;59.88
9139;BME280;4604;48.616;9.548;2023-07-13T01:02:25;96896.03;;;20.46;60.60
9139;BME280;4604;48.616;9.548;2023-07-13T01:04:52;96892.91;;;20.42;61.21
9139;BME280;4604;48.616;9.548;2023-07-13T01:07:19;96892.50;;;20.39;61.22
9139;BME280;4604;48.616;9.548;2023-07-13T01:09:46;96902.41;;;20.45;61.33
9139;BME280;4604;48.616;9.548;2023-07-13T01:12:12;96896.38;;;20.29;61.82
9139;BME280;4604;48.616;9.548;2023-07-13T01:14:39;96900.31;;;20.40;61.15
9139;BME280;4604;48.616;9.548;2023-07-13T01:17:09;96901.09;;;20.21;61.50
9139;BME280;4604;48.616;9.548;2023-07-13T01:19:38;96903.72;;;20.14;61.79
9139;BME280;4604;48.616;9.548;2023-07-13T01:22:09;96902.31;;;20.18;61.91
9139;BME280;4604;48.616;9.548;2023-07-13T01:24:37;96902.13;;;20.20;61.96
9139;BME280;4604;48.616;9.548;2023-07-13T01:27:06;96900.47;;;20.19;61.93
9139;BME280;4604;48.616;9.548;2023-07-13T01:29:35;96891.56;;;20.05;62.47
9139;BME280;4604;48.616;9.548;2023-07-13T01:32:08;96890.34;;;20.07;62.41
9139;BME280;4604;48.616;9.548;2023-07-13T01:34:42;96894.03;;;20.06;61.97
9139;BME280;4604;48.616;9.548;2023-07-13T01:37:11;96899.56;;;19.98;61.80
9139;BME280;4604;48.616;9.548;2023-07-13T01:39:38;96890.66;;;19.91;61.85
9139;BME280;4604;48.616;9.548;2023-07-13T01:42:05;96893.75;;;19.88;62.29
9139;BME280;4604;48.616;9.548;2023-07-13T01:44:32;96888.97;;;19.83;62.08
9139;BME280;4604;48.616;9.548;2023-07-13T01:46:59;96897.66;;;19.85;61.73
9139;BME280;4604;48.616;9.548;2023-07-13T01:49:25;96903.19;;;19.84;61.89
9139;BME280;4604;48.616;9.548;2023-07-13T01:51:52;96902.78;;;19.80;61.42
9139;BME280;4604;48.616;9.548;2023-07-13T01:54:20;96902.78;;;19.87;60.98
9139;BME280;4604;48.616;9.548;2023-07-13T01:56:47;96905.47;;;19.87;60.88
9139;BME280;4604;48.616;9.548;2023-07-13T01:59:13;96906.09;;;19.89;61.11
9139;BME280;4604;48.616;9.548;2023-07-13T02:01:40;96902.59;;;19.88;61.60
9139;BME280;4604;48.616;9.548;2023-07-13T02:04:06;96914.78;;;19.91;62.41
9139;BME280;4604;48.616;9.548;2023-07-13T02:06:33;96905.47;;;19.87;63.30
9139;BME280;4604;48.616;9.548;2023-07-13T02:09:00;96908.38;;;19.85;63.97
9139;BME280;4604;48.616;9.548;2023-07-13T02:11:27;96910.41;;;19.83;64.96
9139;BME280;4604;48.616;9.548;2023-07-13T02:13:57;96916.19;;;19.80;65.62
9139;BME280;4604;48.616;9.548;2023-07-13T02:16:24;96921.94;;;19.84;66.04
9139;BME280;4604;48.616;9.548;2023-07-13T02:18:50;96920.25;;;19.76;66.34
9139;BME280;4604;48.616;9.548;2023-07-13T02:21:17;96923.34;;;19.73;66.48
9139;BME280;4604;48.616;9.548;2023-07-13T02:23:44;96921.03;;;19.70;66.50
9139;BME280;4604;48.616;9.548;2023-07-13T02:26:10;96915.22;;;19.66;66.56
9139;BME280;4604;48.616;9.548;2023-07-13T02:28:38;96920.75;;;19.65;66.63
9139;BME280;4604;48.616;9.548;2023-07-13T02:31:06;96915.00;;;19.61;67.05
9139;BME280;4604;48.616;9.548;2023-07-13T02:33:32;96914.53;;;19.58;67.27
9139;BME280;4604;48.616;9.548;2023-07-13T02:35:59;96913.31;;;19.60;67.43
9139;BME280;4604;48.616;9.548;2023-07-13T02:38:25;96913.97;;;19.62;68.04
9139;BME280;4604;48.616;9.548;2023-07-13T02:40:52;96897.59;;;19.51;68.34
9139;BME280;4604;48.616;9.548;2023-07-13T02:43:19;96902.19;;;19.57;68.53
9139;BME280;4604;48.616;9.548;2023-07-13T02:45:47;96906.88;;;19.48;68.38
9139;BME280;4604;48.616;9.548;2023-07-13T02:48:14;96906.19;;;19.39;68.55
9139;BME280;4604;48.616;9.548;2023-07-13T02:50:40;96907.41;;;19.37;68.67
9139;BME280;4604;48.616;9.548;2023-07-13T02:53:07;96911.50;;;19.33;68.80
9139;BME280;4604;48.616;9.548;2023-07-13T02:55:33;96923.41;;;19.30;69.01
9139;BME280;4604;48.616;9.548;2023-07-13T02:58:00;96907.69;;;19.20;69.37
9139;BME280;4604;48.616;9.548;2023-07-13T03:00:27;96914.91;;;19.20;69.47
9139;BME280;4604;48.616;9.548;2023-07-13T03:02:55;96922.47;;;19.16;69.64
9139;BME280;4604;48.616;9.548;2023-07-13T03:05:23;96910.53;;;19.12;69.73
9139;BME280;4604;48.616;9.548;2023-07-13T03:07:50;96905.13;;;19.06;69.79
9139;BME280;4604;48.616;9.548;2023-07-13T03:10:17;96910.97;;;18.94;70.24
9139;BME280;4604;48.616;9.548;2023-07-13T03:12:43;96906.16;;;18.83;70.59
9139;BME280;4604;48.616;9.548;2023-07-13T03:15:10;96900.06;;;18.74;70.64
9139;BME280;4604;48.616;9.548;2023-07-13T03:17:37;96907.44;;;18.72;70.75
9139;BME280;4604;48.616;9.548;2023-07-13T03:20:07;96914.97;;;18.62;71.41
9139;BME280;4604;48.616;9.548;2023-07-13T03:22:34;96912.22;;;18.55;71.65
9139;BME280;4604;48.616;9.548;2023-07-13T03:25:01;96913.06;;;18.56;72.13
9139;BME280;4604;48.616;9.548;2023-07-13T03:27:27;96910.06;;;18.44;72.81
9139;BME280;4604;48.616;9.548;2023-07-13T03:29:54;96918.81;;;18.38;73.38
9139;BME280;4604;48.616;9.548;2023-07-13T03:32:21;96926.66;;;18.39;73.55
9139;BME280;4604;48.616;9.548;2023-07-13T03:34:48;96927.22;;;18.35;74.43
9139;BME280;4604;48.616;9.548;2023-07-13T03:37:15;96932.56;;;18.35;74.83
9139;BME280;4604;48.616;9.548;2023-07-13T03:39:42;96935.25;;;18.35;74.80
9139;BME280;4604;48.616;9.548;2023-07-13T03:42:09;96941.63;;;18.34;75.10
9139;BME280;4604;48.616;9.548;2023-07-13T03:44:35;96945.94;;;18.35;75.11
9139;BME280;4604;48.616;9.548;2023-07-13T03:47:02;96935.34;;;18.27;75.38
9139;BME280;4604;48.616;9.548;2023-07-13T03:49:31;96934.06;;;18.23;75.64
9139;BME280;4604;48.616;9.548;2023-07-13T03:51:57;96941.06;;;18.24;75.81
9139;BME280;4604;48.616;9.548;2023-07-13T03:54:25;96946.41;;;18.24;75.94
9139;BME280;4604;48.616;9.548;2023-07-13T03:56:52;96948.63;;;18.20;75.86
9139;BME280;4604;48.616;9.548;2023-07-13T03:59:21;96950.28;;;18.21;75.85
9139;BME280;4604;48.616;9.548;2023-07-13T04:01:48;96952.78;;;18.23;76.04
9139;BME280;4604;48.616;9.548;2023-07-13T04:04:14;96951.47;;;18.18;76.48
9139;BME280;4604;48.616;9.548;2023-07-13T04:06:41;96960.13;;;18.21;76.30
9139;BME280;4604;48.616;9.548;2023-07-13T04:09:08;96952.03;;;18.14;76.34
9139;BME280;4604;48.616;9.548;2023-07-13T04:11:36;96957.84;;;18.17;76.21
9139;BME280;4604;48.616;9.548;2023-07-13T04:14:02;96957.28;;;18.22;75.99
9139;BME280;4604;48.616;9.548;2023-07-13T04:16:29;96950.47;;;18.20;76.07
9139;BME280;4604;48.616;9.548;2023-07-13T04:18:56;96957.28;;;18.22;76.00
9139;BME280;4604;48.616;9.548;2023-07-13T04:21:25;96959.13;;;18.22;75.94
9139;BME280;4604;48.616;9.548;2023-07-13T04:23:52;96962.81;;;18.21;75.29
9139;BME280;4604;48.616;9.548;2023-07-13T04:26:19;96966.59;;;18.11;75.55
9139;BME280;4604;48.616;9.548;2023-07-13T04:28:47;96972.41;;;18.15;75.72
9139;BME280;4604;48.616;9.548;2023-07-13T04:31:14;96970.38;;;18.17;75.79
9139;BME280;4604;48.616;9.548;2023-07-13T04:33:41;96968.91;;;18.14;75.54
9139;BME280;4604;48.616;9.548;2023-07-13T04:36:08;96974.97;;;18.23;75.27
9139;BME280;4604;48.616;9.548;2023-07-13T04:38:36;96972.84;;;18.18;75.76
9139;BME280;4604;48.616;9.548;2023-07-13T04:41:04;96972.19;;;18.16;76.46
9139;BME280;4604;48.616;9.548;2023-07-13T04:43:32;96974.97;;;18.23;76.17
9139;BME280;4604;48.616;9.548;2023-07-13T04:46:04;96974.41;;;18.28;75.75
9139;BME280;4604;48.616;9.548;2023-07-13T04:48:32;96966.00;;;18.31;75.20
9139;BME280;4604;48.616;9.548;2023-07-13T04:50:58;96970.25;;;18.40;74.91
9139;BME280;4604;48.616;9.548;2023-07-13T04:53:25;96974.38;;;18.43;74.80
9139;BME280;4604;48.616;9.548;2023-07-13T04:55:52;96966.56;;;18.41;75.60
9139;BME280;4604;48.616;9.548;2023-07-13T04:58:19;96969.25;;;18.41;75.53
9139;BME280;4604;48.616;9.548;2023-07-13T05:00:47;96969.84;;;18.43;75.73
9139;BME280;4604;48.616;9.548;2023-07-13T05:03:15;96976.22;;;18.42;76.56
9139;BME280;4604;48.616;9.548;2023-07-13T05:05:41;96984.91;;;18.44;77.25
9139;BME280;4604;48.616;9.548;2023-07-13T05:08:08;96974.00;;;18.46;77.83
9139;BME280;4604;48.616;9.548;2023-07-13T05:10:35;96980.06;;;18.54;78.51
9139;BME280;4604;48.616;9.548;2023-07-13T05:13:01;96979.91;;;18.56;78.43
9139;BME280;4604;48.616;9.548;2023-07-13T05:15:28;96982.81;;;18.61;78.11
9139;BME280;4604;48.616;9.548;2023-07-13T05:17:55;96978.81;;;18.72;78.03
9139;BME280;4604;48.616;9.548;2023-07-13T05:20:22;96987.13;;;18.77;78.41
9139;BME280;4604;48.616;9.548;2023-07-13T05:22:49;96988.59;;;18.79;77.83
9139;BME280;4604;48.616;9.548;2023-07-13T05:25:16;96989.25;;;18.81;77.39
9139;BME280;4604;48.616;9.548;2023-07-13T05:27:42;96992.00;;;18.88;76.92
9139;BME280;4604;48.616;9.548;2023-07-13T05:30:11;96997.78;;;18.92;76.84
9139;BME280;4604;48.616;9.548;2023-07-13T05:32:38;96997.22;;;18.96;76.42
9139;BME280;4604;48.616;9.548;2023-07-13T05:35:05;96999.69;;;18.98;76.09
9139;BME280;4604;48.616;9.548;2023-07-13T05:37:34;96999.06;;;18.96;75.65
9139;BME280;4604;48.616;9.548;2023-07-13T05:40:00;97001.41;;;19.06;75.50
9139;BME280;4604;48.616;9.548;2023-07-13T05:42:27;97002.88;;;19.08;76.16
9139;BME280;4604;48.616;9.548;2023-07-13T05:44:53;97008.75;;;19.18;76.51
9139;BME280;4604;48.616;9.548;2023-07-13T05:47:20;97009.63;;;19.25;76.21
9139;BME280;4604;48.616;9.548;2023-07-13T05:49:47;97015.88;;;19.33;76.24
9139;BME280;4604;48.616;9.548;2023-07-13T05:52:13;97014.66;;;19.35;76.51
9139;BME280;4604;48.616;9.548;2023-07-13T05:54:42;97018.69;;;19.46;76.66
9139;BME280;4604;48.616;9.548;2023-07-13T05:57:08;97023.19;;;19.45;76.66
9139;BME280;4604;48.616;9.548;2023-07-13T05:59:35;97019.94;;;19.50;75.87
9139;BME280;4604;48.616;9.548;2023-07-13T06:02:02;97020.13;;;19.70;74.78
9139;BME280;4604;48.616;9.548;2023-07-13T06:04:29;97016.97;;;19.88;73.67
9139;BME280;4604;48.616;9.548;2023-07-13T06:06:55;97021.97;;;19.98;72.55
9139;BME280;4604;48.616;9.548;2023-07-13T06:09:22;97024.25;;;20.01;71.69
9139;BME280;4604;48.616;9.548;2023-07-13T06:11:50;97023.84;;;20.04;71.41
9139;BME280;4604;48.616;9.548;2023-07-13T06:14:16;97027.63;;;20.16;71.08
9139;BME280;4604;48.616;9.548;2023-07-13T06:16:43;97029.59;;;20.36;70.69
9139;BME280;4604;48.616;9.548;2023-07-13T06:19:10;97032.41;;;20.56;69.41
9139;BME280;4604;48.616;9.548;2023-07-13T06:21:37;97036.19;;;20.68;68.30
9139;BME280;4604;48.616;9.548;2023-07-13T06:24:04;97043.63;;;20.72;67.16
9139;BME280;4604;48.616;9.548;2023-07-13T06:26:30;97042.38;;;20.75;66.04
9139;BME280;4604;48.616;9.548;2023-07-13T06:28:58;97043.03;;;20.84;64.93
9139;BME280;4604;48.616;9.548;2023-07-13T06:31:25;97047.25;;;21.00;64.28
9139;BME280;4604;48.616;9.548;2023-07-13T06:33:51;97055.97;;;21.22;62.50
9139;BME280;4604;48.616;9.548;2023-07-13T06:36:18;97056.28;;;20.92;51.10
9139;BME280;4604;48.616;9.548;2023-07-13T06:38:44;97055.44;;;20.91;50.95
9139;BME280;4604;48.616;9.548;2023-07-13T06:41:11;97048.47;;;20.97;50.61
9139;BME280;4604;48.616;9.548;2023-07-13T06:43:38;97058.91;;;20.79;50.21
9139;BME280;4604;48.616;9.548;2023-07-13T06:46:06;97063.91;;;20.88;49.61
9139;BME280;4604;48.616;9.548;2023-07-13T06:48:33;97066.81;;;20.93;49.94
9139;BME280;4604;48.616;9.548;2023-07-13T06:51:01;97060.41;;;20.94;50.49
9139;BME280;4604;48.616;9.548;2023-07-13T06:53:28;97059.19;;;20.90;51.30
9139;BME280;4604;48.616;9.548;2023-07-13T06:55:55;97063.91;;;20.88;50.85
9139;BME280;4604;48.616;9.548;2023-07-13T06:58:22;97056.03;;;20.45;49.24
9139;BME280;4604;48.616;9.548;2023-07-13T07:00:50;97067.13;;;20.36;50.37
9139;BME280;4604;48.616;9.548;2023-07-13T07:03:18;97064.72;;;20.47;50.10
9139;BME280;4604;48.616;9.548;2023-07-13T07:05:45;97064.31;;;20.50;50.47
9139;BME280;4604;48.616;9.548;2023-07-13T07:08:12;97066.06;;;20.58;49.69
9139;BME280;4604;48.616;9.548;2023-07-13T07:10:40;97066.56;;;20.82;49.35
9139;BME280;4604;48.616;9.548;2023-07-13T07:13:06;97066.84;;;21.00;49.72
9139;BME280;4604;48.616;9.548;2023-07-13T07:15:34;97070.72;;;20.91;49.47
9139;BME280;4604;48.616;9.548;2023-07-13T07:18:01;97068.41;;;20.81;49.38
9139;BME280;4604;48.616;9.548;2023-07-13T07:20:29;97074.97;;;20.72;49.67
9139;BME280;4604;48.616;9.548;2023-07-13T07:22:56;97073.81;;;20.94;49.48
9139;BME280;4604;48.616;9.548;2023-07-13T07:25:22;97082.75;;;21.08;49.25
9139;BME280;4604;48.616;9.548;2023-07-13T07:27:49;97080.72;;;21.17;49.66
9139;BME280;4604;48.616;9.548;2023-07-13T07:30:15;97082.78;;;21.15;49.05
9139;BME280;4604;48.616;9.548;2023-07-13T07:32:42;97081.94;;;21.21;48.83
9139;BME280;4604;48.616;9.548;2023-07-13T07:35:08;97083.03;;;21.27;48.67
9139;BME280;4604;48.616;9.548;2023-07-13T07:37:37;97082.66;;;21.43;48.22
9139;BME280;4604;48.616;9.548;2023-07-13T07:40:04;97078.97;;;21.51;47.17
9139;BME280;4604;48.616;9.548;2023-07-13T07:42:31;97083.50;;;21.50;47.37
9139;BME280;4604;48.616;9.548;2023-07-13T07:44:58;97081.41;;;21.46;47.59
9139;BME280;4604;48.616;9.548;2023-07-13T07:47:26;97080.81;;;21.50;48.04
9139;BME280;4604;48.616;9.548;2023-07-13T07:49:52;97081.44;;;21.52;46.99
9139;BME280;4604;48.616;9.548;2023-07-13T07:52:19;97081.44;;;21.52;45.72
9139;BME280;4604;48.616;9.548;2023-07-13T07:54:47;97083.13;;;21.80;45.07
9139;BME280;4604;48.616;9.548;2023-07-13T07:57:13;97086.63;;;21.94;45.52
9139;BME280;4604;48.616;9.548;2023-07-13T07:59:40;97092.41;;;22.11;44.81
9139;BME280;4604;48.616;9.548;2023-07-13T08:02:08;97095.13;;;22.24;45.01
9139;BME280;4604;48.616;9.548;2023-07-13T08:04:36;97100.66;;;22.49;44.70
9139;BME280;4604;48.616;9.548;2023-07-13T08:07:03;97088.78;;;22.70;44.52
9139;BME280;4604;48.616;9.548;2023-07-13T08:09:30;97094.50;;;22.87;44.27
9139;BME280;4604;48.616;9.548;2023-07-13T08:11:58;97099.06;;;23.00;42.73
9139;BME280;4604;48.616;9.548;2023-07-13T08:14:24;97096.81;;;23.28;41.82
9139;BME280;4604;48.616;9.548;2023-07-13T08:16:51;97082.66;;;23.08;42.42
9139;BME280;4604;48.616;9.548;2023-07-13T08:19:18;97085.59;;;23.00;40.81
9139;BME280;4604;48.616;9.548;2023-07-13T08:21:45;97087.13;;;23.27;41.59
9139;BME280;4604;48.616;9.548;2023-07-13T08:24:13;97092.81;;;23.06;39.91
9139;BME280;4604;48.616;9.548;2023-07-13T08:26:41;97083.28;;;23.03;40.01
9139;BME280;4604;48.616;9.548;2023-07-13T08:29:09;97088.81;;;23.22;40.07
9139;BME280;4604;48.616;9.548;2023-07-13T08:31:36;97086.16;;;23.47;40.35
9139;BME280;4604;48.616;9.548;2023-07-13T08:34:03;97090.97;;;23.38;38.54
9139;BME280;4604;48.616;9.548;2023-07-13T08:36:29;97084.78;;;23.31;37.92
9139;BME280;4604;48.616;9.548;2023-07-13T08:38:56;97101.22;;;23.23;38.06
9139;BME280;4604;48.616;9.548;2023-07-13T08:41:23;97085.81;;;23.37;38.12
9139;BME280;4604;48.616;9.548;2023-07-13T08:43:51;97104.31;;;23.26;38.51
9139;BME280;4604;48.616;9.548;2023-07-13T08:46:25;97099.16;;;23.25;38.15
9139;BME280;4604;48.616;9.548;2023-07-13T08:48:56;97090.19;;;23.63;38.06
9139;BME280;4604;48.616;9.548;2023-07-13T08:51:37;97082.06;;;23.76;37.61
9139;BME280;4604;48.616;9.548;2023-07-13T08:54:14;97096.56;;;22.98;38.76
9139;BME280;4604;48.616;9.548;2023-07-13T08:56:45;97093.50;;;22.88;38.38
9139;BME280;4604;48.616;9.548;2023-07-13T08:59:16;97095.38;;;22.81;38.90
9139;BME280;4604;48.616;9.548;2023-07-13T09:02:04;97099.97;;;23.25;39.70
9139;BME280;4604;48.616;9.548;2023-07-13T09:04:37;97101.84;;;23.25;37.34
9139;BME280;4604;48.616;9.548;2023-07-13T09:07:13;97090.44;;;23.61;38.18
9139;BME280;4604;48.616;9.548;2023-07-13T09:09:50;97098.19;;;23.83;38.32
9139;BME280;4604;48.616;9.548;2023-07-13T09:12:27;97090.19;;;23.95;37.96
9139;BME280;4604;48.616;9.548;2023-07-13T09:14:59;97093.50;;;23.65;37.09
9139;BME280;4604;48.616;9.548;2023-07-13T09:17:34;97098.75;;;23.53;37.22
9139;BME280;4604;48.616;9.548;2023-07-13T09:20:04;97096.47;;;23.57;37.37
9139;BME280;4604;48.616;9.548;2023-07-13T09:22:37;97096.16;;;23.71;37.83
9139;BME280;4604;48.616;9.548;2023-07-13T09:25:11;97094.34;;;23.97;37.54
9139;BME280;4604;48.616;9.548;2023-07-13T09:27:42;97093.91;;;24.19;36.65
9139;BME280;4604;48.616;9.548;2023-07-13T09:30:23;97096.34;;;24.27;36.84
9139;BME280;4604;48.616;9.548;2023-07-13T09:32:53;97089.97;;;24.46;35.53
9139;BME280;4604;48.616;9.548;2023-07-13T09:35:26;97092.53;;;24.34;36.63
9139;BME280;4604;48.616;9.548;2023-07-13T09:37:58;97096.09;;;24.28;36.88
9139;BME280;4604;48.616;9.548;2023-07-13T09:40:32;97100.09;;;23.76;37.26
9139;BME280;4604;48.616;9.548;2023-07-13T09:43:03;97092.34;;;23.54;36.95
9139;BME280;4604;48.616;9.548;2023-07-13T09:45:33;97091.22;;;23.68;37.08
9139;BME280;4604;48.616;9.548;2023-07-13T09:48:06;97087.56;;;23.56;36.76
9139;BME280;4604;48.616;9.548;2023-07-13T09:50:34;97087.22;;;24.03;37.83
9139;BME280;4604;48.616;9.548;2023-07-13T09:53:03;97087.75;;;24.37;37.31
9139;BME280;4604;48.616;9.548;2023-07-13T09:55:32;97093.91;;;24.44;36.09
9139;BME280;4604;48.616;9.548;2023-07-13T09:58:03;97091.47;;;24.35;36.47
9139;BME280;4604;48.616;9.548;2023-07-13T10:00:31;97083.47;;;24.29;36.29
9139;BME280;4604;48.616;9.548;2023-07-13T10:03:03;97093.06;;;24.43;36.39
9139;BME280;4604;48.616;9.548;2023-07-13T10:05:39;97091.69;;;24.77;35.60
9139;BME280;4604;48.616;9.548;2023-07-13T10:08:09;97097.53;;;24.93;35.21
9139;BME280;4604;48.616;9.548;2023-07-13T10:10:41;97110.75;;;24.83;34.77
9139;BME280;4604;48.616;9.548;2023-07-13T10:13:27;97091.38;;;24.67;35.83
9139;BME280;4604;48.616;9.548;2023-07-13T10:15:55;97099.91;;;25.01;35.02
9139;BME280;4604;48.616;9.548;2023-07-13T10:18:24;97102.38;;;25.21;35.52
9139;BME280;4604;48.616;9.548;2023-07-13T10:21:00;97096.31;;;25.56;35.17
9139;BME280;4604;48.616;9.548;2023-07-13T10:23:35;97107.25;;;25.31;34.46
9139;BME280;4604;48.616;9.548;2023-07-13T10:26:03;97097.41;;;25.36;35.01
9139;BME280;4604;48.616;9.548;2023-07-13T10:28:34;97092.75;;;25.44;33.78
9139;BME280;4604;48.616;9.548;2023-07-13T10:31:05;97093.88;;;25.36;34.11
9139;BME280;4604;48.616;9.548;2023-07-13T10:33:35;97093.63;;;25.79;33.20
9139;BME280;4604;48.616;9.548;2023-07-13T10:36:13;97088.16;;;25.86;33.38
9139;BME280;4604;48.616;9.548;2023-07-13T10:38:41;97079.03;;;25.57;32.66
9139;BME280;4604;48.616;9.548;2023-07-13T10:41:14;97090.25;;;25.42;32.54
9139;BME280;4604;48.616;9.548;2023-07-13T10:43:43;97084.91;;;25.54;33.27
9139;BME280;4604;48.616;9.548;2023-07-13T10:46:14;97079.13;;;26.04;33.36
9139;BME280;4604;48.616;9.548;2023-07-13T10:48:43;97088.56;;;26.25;32.70
9139;BME280;4604;48.616;9.548;2023-07-13T10:51:14;97088.44;;;26.20;32.98
9139;BME280;4604;48.616;9.548;2023-07-13T10:53:41;97082.91;;;26.15;32.90
9139;BME280;4604;48.616;9.548;2023-07-13T10:56:22;97083.69;;;26.51;33.11
9139;BME280;4604;48.616;9.548;2023-07-13T10:59:01;97082.91;;;26.62;32.50
9139;BME280;4604;48.616;9.548;2023-07-13T11:01:39;97068.84;;;26.88;33.01
9139;BME280;4604;48.616;9.548;2023-07-13T11:04:12;97069.97;;;27.04;32.16
9139;BME280;4604;48.616;9.548;2023-07-13T11:06:42;97076.91;;;27.12;31.96
9139;BME280;4604;48.616;9.548;2023-07-13T11:09:33;97074.16;;;26.48;31.88
9139;BME280;4604;48.616;9.548;2023-07-13T11:12:03;97069.03;;;26.23;32.40
9139;BME280;4604;48.616;9.548;2023-07-13T11:14:35;97071.84;;;26.04;33.16
9139;BME280;4604;48.616;9.548;2023-07-13T11:17:29;97075.31;;;24.91;33.39
9139;BME280;4604;48.616;9.548;2023-07-13T11:20:18;97070.59;;;24.86;34.59
9139;BME280;4604;48.616;9.548;2023-07-13T11:22:48;97072.13;;;25.31;34.00
9139;BME280;4604;48.616;9.548;2023-07-13T11:25:27;97065.28;;;25.58;33.33
9139;BME280;4604;48.616;9.548;2023-07-13T11:28:11;97065.63;;;25.92;32.80
9139;BME280;4604;48.616;9.548;2023-07-13T11:30:46;97058.91;;;25.95;33.45
9139;BME280;4604;48.616;9.548;2023-07-13T11:33:16;97063.13;;;26.26;33.53
9139;BME280;4604;48.616;9.548;2023-07-13T11:35:59;97056.63;;;26.74;31.95
9139;BME280;4604;48.616;9.548;2023-07-13T11:38:35;97056.63;;;26.51;32.22
9139;BME280;4604;48.616;9.548;2023-07-13T11:41:05;97054.06;;;26.32;33.40
9139;BME280;4604;48.616;9.548;2023-07-13T11:43:33;97053.72;;;26.29;33.05
9139;BME280;4604;48.616;9.548;2023-07-13T11:46:14;97050.34;;;26.21;32.00
9139;BME280;4604;48.616;9.548;2023-07-13T11:48:41;97054.44;;;26.12;32.11
9139;BME280;4604;48.616;9.548;2023-07-13T11:51:17;97057.94;;;25.89;32.72
9139;BME280;4604;48.616;9.548;2023-07-13T11:53:49;97054.00;;;25.61;32.95
9139;BME280;4604;48.616;9.548;2023-07-13T11:56:16;97051.78;;;25.58;33.12
9139;BME280;4604;48.616;9.548;2023-07-13T11:58:44;97063.50;;;25.52;33.70
9139;BME280;4604;48.616;9.548;2023-07-13T12:01:18;97056.69;;;25.61;33.93
9139;BME280;4604;48.616;9.548;2023-07-13T12:03:47;97059.72;;;25.41;34.02
9139;BME280;4604;48.616;9.548;2023-07-13T12:06:27;97048.00;;;25.59;33.78
9139;BME280;4604;48.616;9.548;2023-07-13T12:08:58;97058.47;;;25.56;34.06
9139;BME280;4604;48.616;9.548;2023-07-13T12:11:25;97042.56;;;25.48;32.73
9139;BME280;4604;48.616;9.548;2023-07-13T12:13:52;97049.75;;;26.19;32.82
9139;BME280;4604;48.616;9.548;2023-07-13T12:16:28;97048.09;;;26.54;32.14
9139;BME280;4604;48.616;9.548;2023-07-13T12:18:59;97052.28;;;26.50;32.34
9139;BME280;4604;48.616;9.548;2023-07-13T12:21:30;97053.63;;;26.12;31.54
9139;BME280;4604;48.616;9.548;2023-07-13T12:24:00;97047.00;;;26.43;32.02
9139;BME280;4604;48.616;9.548;2023-07-13T12:26:28;97044.69;;;26.87;32.21
9139;BME280;4604;48.616;9.548;2023-07-13T12:28:56;97055.84;;;27.31;32.10
9139;BME280;4604;48.616;9.548;2023-07-13T12:31:26;97046.88;;;27.59;31.10
9139;BME280;4604;48.616;9.548;2023-07-13T12:33:57;97038.38;;;27.84;30.69
9139;BME280;4604;48.616;9.548;2023-07-13T12:36:24;97040.75;;;28.14;31.15
9139;BME280;4604;48.616;9.548;2023-07-13T12:38:52;97046.53;;;28.40;30.20
9139;BME280;4604;48.616;9.548;2023-07-13T12:41:20;97040.38;;;28.28;30.48
9139;BME280;4604;48.616;9.548;2023-07-13T12:43:48;97044.63;;;28.41;30.19
9139;BME280;4604;48.616;9.548;2023-07-13T12:46:18;97044.88;;;28.39;28.79
9139;BME280;4604;48.616;9.548;2023-07-13T12:48:49;97045.53;;;27.90;29.69
9139;BME280;4604;48.616;9.548;2023-07-13T12:51:17;97042.94;;;28.17;29.49
9139;BME280;4604;48.616;9.548;2023-07-13T12:53:49;97045.06;;;27.65;29.29
9139;BME280;4604;48.616;9.548;2023-07-13T12:56:22;97042.13;;;27.09;30.01
9139;BME280;4604;48.616;9.548;2023-07-13T12:58:50;97037.13;;;27.01;29.45
9139;BME280;4604;48.616;9.548;2023-07-13T13:01:21;97041.63;;;27.24;30.07
9139;BME280;4604;48.616;9.548;2023-07-13T13:03:49;97034.94;;;27.43;30.07
9139;BME280;4604;48.616;9.548;2023-07-13T13:06:21;97038.09;;;26.95;29.77
9139;BME280;4604;48.616;9.548;2023-07-13T13:08:52;97025.91;;;26.68;30.17
9139;BME280;4604;48.616;9.548;2023-07-13T13:11:22;97043.22;;;27.08;31.00
9139;BME280;4604;48.616;9.548;2023-07-13T13:13:50;97027.03;;;26.84;30.89
9139;BME280;4604;48.616;9.548;2023-07-13T13:16:20;97025.56;;;26.65;30.95
9139;BME280;4604;48.616;9.548;2023-07-13T13:18:48;97028.88;;;26.96;31.09
9139;BME280;4604;48.616;9.548;2023-07-13T13:21:18;97033.13;;;26.63;30.78
9139;BME280;4604;48.616;9.548;2023-07-13T13:23:45;97040.75;;;26.42;31.10
9139;BME280;4604;48.616;9.548;2023-07-13T13:26:14;97030.91;;;26.24;31.69
9139;BME280;4604;48.616;9.548;2023-07-13T13:28:42;97031.13;;;26.23;31.66
9139;BME280;4604;48.616;9.548;2023-07-13T13:31:10;97026.28;;;26.60;31.79